createdAt,value
2023-02-16T00:01:53.281Z,31.10
2023-02-16T00:04:28.841Z,31.90
2023-02-16T00:06:56.513Z,30.80
2023-02-16T00:09:24.454Z,31.60
2023-02-16T00:12:11.149Z,29.03
2023-02-16T00:14:38.998Z,30.33
2023-02-16T00:17:06.412Z,31.27
2023-02-16T00:19:38.564Z,31.73
2023-02-16T00:22:06.916Z,30.17
2023-02-16T00:24:34.126Z,32.70
2023-02-16T00:27:03.406Z,32.67
2023-02-16T00:29:36.468Z,29.37
2023-02-16T00:32:05.691Z,31.07
2023-02-16T00:34:38.360Z,32.03
2023-02-16T00:37:07.857Z,32.50
2023-02-16T00:39:35.405Z,31.27
2023-02-16T00:42:11.061Z,32.53
2023-02-16T00:44:43.931Z,34.70
2023-02-16T00:47:15.731Z,33.30
2023-02-16T00:49:42.378Z,33.60
2023-02-16T00:52:23.032Z,31.77
2023-02-16T00:54:50.991Z,33.90
2023-02-16T00:57:19.011Z,29.33
2023-02-16T00:59:47.156Z,30.23
2023-02-16T01:02:14.370Z,30.43
2023-02-16T01:04:41.220Z,32.80
2023-02-16T01:07:34.923Z,32.93
2023-02-16T01:10:19.936Z,31.47
2023-02-16T01:12:46.686Z,29.13
2023-02-16T01:15:15.895Z,31.67
2023-02-16T01:17:42.547Z,32.20
2023-02-16T01:20:21.690Z,29.97
2023-02-16T01:22:48.595Z,30.90
2023-02-16T01:25:15.558Z,32.13
2023-02-16T01:27:43.071Z,33.13
2023-02-16T01:30:17.289Z,34.93
2023-02-16T01:32:47.351Z,34.37
2023-02-16T01:35:14.054Z,31.53
2023-02-16T01:37:40.680Z,35.63
2023-02-16T01:40:18.240Z,32.60
2023-02-16T01:43:19.185Z,34.83
2023-02-16T01:45:51.270Z,33.13
2023-02-16T01:48:25.919Z,32.63
2023-02-16T01:51:04.036Z,33.83
2023-02-16T01:53:53.213Z,35.60
2023-02-16T01:56:32.425Z,33.40
2023-02-16T01:59:08.363Z,32.53
2023-02-16T02:01:48.633Z,32.57
2023-02-16T02:04:51.609Z,31.57
2023-02-16T02:07:26.810Z,33.53
2023-02-16T02:10:02.223Z,32.80
2023-02-16T02:13:10.490Z,35.70
2023-02-16T02:15:37.149Z,30.73
2023-02-16T02:18:03.977Z,33.73
2023-02-16T02:21:04.381Z,32.13
2023-02-16T02:24:04.630Z,30.17
2023-02-16T02:27:08.305Z,31.50
2023-02-16T02:30:01.620Z,31.90
2023-02-16T02:32:34.110Z,31.13
2023-02-16T02:35:25.643Z,34.87
2023-02-16T02:38:15.425Z,30.30
2023-02-16T02:40:42.022Z,35.00
2023-02-16T02:43:24.636Z,30.93
2023-02-16T02:46:17.875Z,32.37
2023-02-16T02:48:44.587Z,32.03
2023-02-16T02:51:29.335Z,30.53
2023-02-16T02:54:30.709Z,32.80
2023-02-16T02:57:21.957Z,30.87
2023-02-16T03:00:24.034Z,33.43
2023-02-16T03:02:53.829Z,34.40
2023-02-16T03:05:23.392Z,32.73
2023-02-16T03:07:57.227Z,30.47
2023-02-16T03:10:46.158Z,31.27
2023-02-16T03:13:25.739Z,33.17
2023-02-16T03:15:56.036Z,30.87
2023-02-16T03:18:44.212Z,33.73
2023-02-16T03:21:33.134Z,35.20
2023-02-16T03:24:21.679Z,35.80
2023-02-16T03:27:09.355Z,34.40
2023-02-16T03:29:37.540Z,33.63
2023-02-16T03:32:05.010Z,33.87
2023-02-16T03:34:32.712Z,37.70
2023-02-16T03:37:00.773Z,33.07
2023-02-16T03:39:29.229Z,36.93
2023-02-16T03:41:57.856Z,36.90
2023-02-16T03:44:25.033Z,31.30
2023-02-16T03:46:52.172Z,31.43
2023-02-16T03:49:19.810Z,31.60
2023-02-16T03:51:46.608Z,33.47
2023-02-16T03:54:13.649Z,35.93
2023-02-16T03:56:40.333Z,34.37
2023-02-16T03:59:07.085Z,34.90
2023-02-16T04:01:33.786Z,32.57
2023-02-16T04:04:00.473Z,32.90
2023-02-16T04:06:27.314Z,30.90
2023-02-16T04:08:54.544Z,34.47
2023-02-16T04:11:39.717Z,29.50
2023-02-16T04:14:06.385Z,30.73
2023-02-16T04:16:33.072Z,31.60
2023-02-16T04:18:59.791Z,29.57
2023-02-16T04:21:26.412Z,26.60
2023-02-16T04:23:53.114Z,29.70
2023-02-16T04:26:19.790Z,31.20
2023-02-16T04:28:46.525Z,32.23
2023-02-16T04:31:13.309Z,31.97
2023-02-16T04:33:40.094Z,31.10
2023-02-16T04:36:07.266Z,29.37
2023-02-16T04:38:33.917Z,29.47
2023-02-16T04:41:00.533Z,30.13
2023-02-16T04:43:27.180Z,32.33
2023-02-16T04:45:53.821Z,30.47
2023-02-16T04:48:20.422Z,32.70
2023-02-16T04:50:47.036Z,32.03
2023-02-16T04:53:13.702Z,30.73
2023-02-16T04:55:40.300Z,27.80
2023-02-16T04:58:06.917Z,31.37
2023-02-16T05:00:36.188Z,30.03
2023-02-16T05:03:03.309Z,33.33
2023-02-16T05:05:31.673Z,29.63
2023-02-16T05:07:58.290Z,28.87
2023-02-16T05:10:24.907Z,28.33
2023-02-16T05:13:10.305Z,32.60
2023-02-16T05:15:37.158Z,30.43
2023-02-16T05:18:03.949Z,29.53
2023-02-16T05:20:49.260Z,34.30
2023-02-16T05:23:15.832Z,27.27
2023-02-16T05:25:42.594Z,27.73
2023-02-16T05:28:09.337Z,28.87
2023-02-16T05:30:36.065Z,28.07
2023-02-16T05:33:02.732Z,30.23
2023-02-16T05:35:30.015Z,26.00
2023-02-16T05:37:56.612Z,28.83
2023-02-16T05:40:23.227Z,28.80
2023-02-16T05:42:53.922Z,27.13
2023-02-16T05:45:21.028Z,27.73
2023-02-16T05:47:47.646Z,27.23
2023-02-16T05:50:14.294Z,26.83
2023-02-16T05:52:40.929Z,30.47
2023-02-16T05:55:07.660Z,28.30
2023-02-16T05:57:35.660Z,31.33
2023-02-16T06:00:04.100Z,31.27
2023-02-16T06:02:30.819Z,32.87
2023-02-16T06:04:57.429Z,32.90
2023-02-16T06:07:24.059Z,32.90
2023-02-16T06:09:50.679Z,34.23
2023-02-16T06:12:17.292Z,32.17
2023-02-16T06:14:43.988Z,31.10
2023-02-16T06:17:10.606Z,29.30
2023-02-16T06:19:37.290Z,27.27
2023-02-16T06:22:03.893Z,26.70
2023-02-16T06:24:30.890Z,29.27
2023-02-16T06:26:58.883Z,28.87
2023-02-16T06:29:25.548Z,28.80
2023-02-16T06:31:52.345Z,28.97
2023-02-16T06:34:19.176Z,30.77
2023-02-16T06:36:45.817Z,29.47
2023-02-16T06:39:12.434Z,27.33
2023-02-16T06:41:40.350Z,29.50
2023-02-16T06:44:12.208Z,30.33
2023-02-16T06:46:39.723Z,25.73
2023-02-16T06:49:13.377Z,27.27
2023-02-16T06:51:40.102Z,27.27
2023-02-16T06:54:07.164Z,28.07
2023-02-16T06:56:34.601Z,27.33
2023-02-16T06:59:02.489Z,30.07
2023-02-16T07:01:30.123Z,29.70
2023-02-16T07:03:57.648Z,27.93
2023-02-16T07:06:27.583Z,28.77
2023-02-16T07:08:58.751Z,29.37
2023-02-16T07:11:25.434Z,26.83
2023-02-16T07:13:52.133Z,27.00
2023-02-16T07:16:19.281Z,28.33
2023-02-16T07:18:46.522Z,28.20
2023-02-16T07:21:13.512Z,26.73
2023-02-16T07:23:40.155Z,25.83
2023-02-16T07:26:06.816Z,28.53
2023-02-16T07:28:33.497Z,23.53
2023-02-16T07:31:16.212Z,28.57
2023-02-16T07:33:43.437Z,26.43
2023-02-16T07:36:11.361Z,25.50
2023-02-16T07:38:41.585Z,25.77
2023-02-16T07:41:09.868Z,25.80
2023-02-16T07:43:38.328Z,29.73
2023-02-16T07:46:05.462Z,26.83
2023-02-16T07:48:32.216Z,27.60
2023-02-16T07:50:59.656Z,26.97
2023-02-16T07:53:26.367Z,27.00
2023-02-16T07:55:53.059Z,27.80
2023-02-16T07:58:28.828Z,25.23
2023-02-16T08:01:10.764Z,24.43
2023-02-16T08:03:38.806Z,27.37
2023-02-16T08:06:06.553Z,25.97
2023-02-16T08:08:33.560Z,24.00
2023-02-16T08:11:00.570Z,24.00
2023-02-16T08:13:27.220Z,22.23
2023-02-16T08:15:53.960Z,24.63
2023-02-16T08:18:20.600Z,24.13
2023-02-16T08:21:03.380Z,22.23
2023-02-16T08:23:31.378Z,24.47
2023-02-16T08:25:58.977Z,24.67
2023-02-16T08:28:28.562Z,23.47
2023-02-16T08:30:55.597Z,26.20
2023-02-16T08:33:22.227Z,22.03
2023-02-16T08:35:49.389Z,23.90
2023-02-16T08:38:17.196Z,22.40
2023-02-16T08:40:50.740Z,24.03
2023-02-16T08:43:17.386Z,24.33
2023-02-16T08:45:48.154Z,22.77
2023-02-16T08:48:15.130Z,23.77
2023-02-16T08:50:55.360Z,27.10
2023-02-16T08:53:23.126Z,23.97
2023-02-16T08:55:55.647Z,23.23
2023-02-16T08:58:23.331Z,23.27
2023-02-16T09:00:50.801Z,21.50
2023-02-16T09:03:19.058Z,22.53
2023-02-16T09:05:46.821Z,23.00
2023-02-16T09:08:14.310Z,25.50
2023-02-16T09:10:41.159Z,21.53
2023-02-16T09:13:14.054Z,24.30
2023-02-16T09:15:42.829Z,21.37
2023-02-16T09:18:10.762Z,23.67
2023-02-16T09:20:39.628Z,23.37
2023-02-16T09:23:07.089Z,22.73
2023-02-16T09:25:38.372Z,25.27
2023-02-16T09:28:06.671Z,24.37
2023-02-16T09:30:34.654Z,22.60
2023-02-16T09:33:02.117Z,23.57
2023-02-16T09:35:28.806Z,21.60
2023-02-16T09:37:55.698Z,21.33
2023-02-16T09:40:22.470Z,22.97
2023-02-16T09:43:18.221Z,26.43
2023-02-16T09:45:48.880Z,23.37
2023-02-16T09:48:36.810Z,22.90
2023-02-16T09:51:06.493Z,21.73
2023-02-16T09:53:39.344Z,23.63
2023-02-16T09:56:25.125Z,23.83
2023-02-16T09:59:18.862Z,22.23
2023-02-16T10:01:57.810Z,22.27
2023-02-16T10:04:38.985Z,23.30
2023-02-16T10:07:43.667Z,25.33
2023-02-16T10:10:16.372Z,23.90
2023-02-16T10:12:51.772Z,21.40
2023-02-16T10:15:23.276Z,21.80
2023-02-16T10:17:58.982Z,26.00
2023-02-16T10:20:30.174Z,21.03
2023-02-16T10:23:15.516Z,24.63
2023-02-16T10:25:56.421Z,24.87
2023-02-16T10:28:51.012Z,24.17
2023-02-16T10:31:44.306Z,21.60
2023-02-16T10:34:25.109Z,24.17
2023-02-16T10:37:14.892Z,27.67
2023-02-16T10:40:12.856Z,24.17
2023-02-16T10:42:46.542Z,22.63
2023-02-16T10:45:27.456Z,24.93
2023-02-16T10:47:54.504Z,27.53
2023-02-16T10:50:50.116Z,21.93
2023-02-16T10:53:21.413Z,24.23
2023-02-16T10:55:48.134Z,20.33
2023-02-16T10:58:22.741Z,20.77
2023-02-16T11:00:55.587Z,24.30
2023-02-16T11:03:29.867Z,22.53
2023-02-16T11:05:56.947Z,18.23
2023-02-16T11:08:25.670Z,23.30
2023-02-16T11:10:53.697Z,25.40
2023-02-16T11:13:34.372Z,21.97
2023-02-16T11:16:06.825Z,22.20
2023-02-16T11:18:42.706Z,24.33
2023-02-16T11:21:11.008Z,23.93
2023-02-16T11:23:42.841Z,24.80
2023-02-16T11:26:12.265Z,23.83
2023-02-16T11:28:40.946Z,21.37
2023-02-16T11:31:19.206Z,20.97
2023-02-16T11:34:02.607Z,21.23
2023-02-16T11:36:43.760Z,22.60
2023-02-16T11:39:23.504Z,27.47
2023-02-16T11:41:56.153Z,22.50
2023-02-16T11:44:32.236Z,23.77
2023-02-16T11:47:01.686Z,22.23
2023-02-16T11:49:36.146Z,18.20
2023-02-16T11:52:24.377Z,21.50
2023-02-16T11:54:53.863Z,24.47
2023-02-16T11:57:25.101Z,23.63
2023-02-16T11:59:52.148Z,25.20
2023-02-16T12:02:31.969Z,19.80
2023-02-16T12:05:23.341Z,19.60
2023-02-16T12:08:22.147Z,19.77
2023-02-16T12:11:20.874Z,19.90
2023-02-16T12:13:53.211Z,21.77
2023-02-16T12:16:57.415Z,20.27
2023-02-16T12:19:29.432Z,24.97
2023-02-16T12:22:32.880Z,25.83
2023-02-16T12:25:25.606Z,20.30
2023-02-16T12:28:13.425Z,20.63
2023-02-16T12:31:04.921Z,23.23
2023-02-16T12:33:52.021Z,19.53
2023-02-16T12:37:03.467Z,19.77
2023-02-16T12:39:31.882Z,16.20
2023-02-16T12:42:25.477Z,18.80
2023-02-16T12:44:56.457Z,17.63
2023-02-16T12:47:36.476Z,16.97
2023-02-16T12:50:28.861Z,25.03
2023-02-16T12:53:07.269Z,14.10
2023-02-16T12:55:44.557Z,18.83
2023-02-16T12:58:15.092Z,15.47
2023-02-16T13:00:48.542Z,19.80
2023-02-16T13:03:19.576Z,16.63
2023-02-16T13:06:27.610Z,14.80
2023-02-16T13:09:27.294Z,15.10
2023-02-16T13:12:04.337Z,16.27
2023-02-16T13:14:34.831Z,14.00
2023-02-16T13:17:17.437Z,12.97
2023-02-16T13:19:46.664Z,14.00
2023-02-16T13:22:40.097Z,12.37
2023-02-16T13:25:27.737Z,9.87
2023-02-16T13:28:27.310Z,13.43
2023-02-16T13:31:06.084Z,13.00
2023-02-16T13:34:05.512Z,9.03
2023-02-16T13:37:00.197Z,10.23
2023-02-16T13:39:51.553Z,14.17
2023-02-16T13:42:36.711Z,11.57
2023-02-16T13:45:13.021Z,11.57
2023-02-16T13:47:41.533Z,11.27
2023-02-16T13:50:22.343Z,11.70
2023-02-16T13:52:51.840Z,16.10
2023-02-16T13:55:29.319Z,14.17
2023-02-16T13:58:04.403Z,13.00
2023-02-16T14:00:47.536Z,10.10
2023-02-16T14:03:22.694Z,12.03
2023-02-16T14:05:56.146Z,12.47
2023-02-16T14:08:30.693Z,9.63
2023-02-16T14:11:00.815Z,13.40
2023-02-16T14:13:30.296Z,11.03
2023-02-16T14:16:01.733Z,10.93
2023-02-16T14:18:34.688Z,12.93
2023-02-16T14:21:06.668Z,11.17
2023-02-16T14:23:35.146Z,9.97
2023-02-16T14:26:07.836Z,11.07
2023-02-16T14:28:37.693Z,12.50
2023-02-16T14:31:18.620Z,8.57
2023-02-16T14:34:14.637Z,11.30
2023-02-16T14:37:21.400Z,12.67
2023-02-16T14:40:06.928Z,12.63
2023-02-16T14:42:35.804Z,12.47
2023-02-16T14:45:37.833Z,12.00
2023-02-16T14:48:10.582Z,13.27
2023-02-16T14:51:11.204Z,10.63
2023-02-16T14:54:15.649Z,10.57
2023-02-16T14:56:49.584Z,13.13
2023-02-16T14:59:35.153Z,11.33
2023-02-16T15:02:29.799Z,12.97
2023-02-16T15:04:56.873Z,15.93
2023-02-16T15:07:26.114Z,10.00
2023-02-16T15:09:57.827Z,8.63
2023-02-16T15:12:30.415Z,8.50
2023-02-16T15:15:01.035Z,9.33
2023-02-16T15:17:36.011Z,11.93
2023-02-16T15:20:24.907Z,8.40
2023-02-16T15:22:56.941Z,10.50
2023-02-16T15:25:35.389Z,10.03
2023-02-16T15:28:15.219Z,12.30
2023-02-16T15:30:50.866Z,10.10
2023-02-16T15:33:23.465Z,9.63
2023-02-16T15:35:56.855Z,9.40
2023-02-16T15:38:27.340Z,9.37
2023-02-16T15:40:55.614Z,10.13
2023-02-16T15:43:43.243Z,8.40
2023-02-16T15:46:34.487Z,8.87
2023-02-16T15:49:21.510Z,11.93
2023-02-16T15:51:49.228Z,11.90
2023-02-16T15:54:42.294Z,10.00
2023-02-16T15:57:27.064Z,12.90
2023-02-16T15:59:58.333Z,9.63
2023-02-16T16:02:36.227Z,9.53
2023-02-16T16:05:06.558Z,11.20
2023-02-16T16:07:39.950Z,10.67
2023-02-16T16:10:26.188Z,11.73
2023-02-16T16:12:57.950Z,11.83
2023-02-16T16:15:26.966Z,11.10
2023-02-16T16:17:55.201Z,11.80
2023-02-16T16:20:30.928Z,12.07
2023-02-16T16:23:02.034Z,9.53
2023-02-16T16:25:39.439Z,10.70
2023-02-16T16:28:09.041Z,11.03
2023-02-16T16:30:43.599Z,11.97
2023-02-16T16:33:13.270Z,10.23
2023-02-16T16:35:43.964Z,8.23
2023-02-16T16:38:24.204Z,10.23
2023-02-16T16:40:54.008Z,13.10
2023-02-16T16:43:27.088Z,15.33
2023-02-16T16:46:23.742Z,11.43
2023-02-16T16:48:53.774Z,13.17
2023-02-16T16:51:41.969Z,12.00
2023-02-16T16:54:31.910Z,10.17
2023-02-16T16:56:58.649Z,10.07
2023-02-16T16:59:25.305Z,16.90
2023-02-16T17:01:52.845Z,12.07
2023-02-16T17:04:19.640Z,9.03
2023-02-16T17:06:47.664Z,14.47
2023-02-16T17:09:15.948Z,13.30
2023-02-16T17:11:43.602Z,13.73
2023-02-16T17:14:16.183Z,18.90
2023-02-16T17:16:45.216Z,11.47
2023-02-16T17:19:13.565Z,12.43
2023-02-16T17:21:40.537Z,16.30
2023-02-16T17:24:07.377Z,12.83
2023-02-16T17:26:34.565Z,20.00
2023-02-16T17:29:01.313Z,20.73
2023-02-16T17:31:28.172Z,17.10
2023-02-16T17:33:54.904Z,15.47
2023-02-16T17:36:23.898Z,14.53
2023-02-16T17:38:52.345Z,12.73
2023-02-16T17:41:22.774Z,12.10
2023-02-16T17:43:49.902Z,13.57
2023-02-16T17:46:18.022Z,15.00
2023-02-16T17:48:46.892Z,13.47
2023-02-16T17:51:19.080Z,12.67
2023-02-16T17:53:46.021Z,19.07
2023-02-16T17:56:14.457Z,17.67
2023-02-16T17:58:41.572Z,23.60
2023-02-16T18:01:12.756Z,30.20
2023-02-16T18:03:40.611Z,22.47
2023-02-16T18:06:07.510Z,21.17
2023-02-16T18:08:37.240Z,20.57
2023-02-16T18:11:04.113Z,22.33
2023-02-16T18:13:31.791Z,24.30
2023-02-16T18:16:00.280Z,17.47
2023-02-16T18:18:27.040Z,19.67
2023-02-16T18:20:54.044Z,20.07
2023-02-16T18:23:21.113Z,16.93
2023-02-16T18:25:49.971Z,20.43
2023-02-16T18:28:19.191Z,15.80
2023-02-16T18:30:50.483Z,20.47
2023-02-16T18:33:18.629Z,22.00
2023-02-16T18:35:45.343Z,20.67
2023-02-16T18:38:11.997Z,17.77
2023-02-16T18:40:41.142Z,18.23
2023-02-16T18:43:09.035Z,17.30
2023-02-16T18:45:38.173Z,15.73
2023-02-16T18:48:05.443Z,14.77
2023-02-16T18:50:32.350Z,19.23
2023-02-16T18:52:59.029Z,14.73
2023-02-16T18:55:27.917Z,15.40
2023-02-16T18:57:54.664Z,16.00
2023-02-16T19:00:21.863Z,16.30
2023-02-16T19:02:49.861Z,14.27
2023-02-16T19:05:19.381Z,16.87
2023-02-16T19:07:46.631Z,15.87
2023-02-16T19:10:13.409Z,17.67
2023-02-16T19:12:40.305Z,13.50
2023-02-16T19:15:08.281Z,15.30
2023-02-16T19:17:35.483Z,19.03
2023-02-16T19:20:02.256Z,21.17
2023-02-16T19:22:28.990Z,19.57
2023-02-16T19:24:55.681Z,19.73
2023-02-16T19:27:22.365Z,18.13
2023-02-16T19:29:49.029Z,20.53
2023-02-16T19:32:15.890Z,19.53
2023-02-16T19:34:42.560Z,22.17
2023-02-16T19:37:09.220Z,16.30
2023-02-16T19:39:35.901Z,19.37
2023-02-16T19:42:02.593Z,19.27
2023-02-16T19:44:29.560Z,19.67
2023-02-16T19:46:59.325Z,24.97
2023-02-16T19:49:26.140Z,19.73
2023-02-16T19:51:53.955Z,23.77
2023-02-16T19:54:20.649Z,19.17
2023-02-16T19:56:53.676Z,21.90
2023-02-16T19:59:20.478Z,23.43
2023-02-16T20:01:47.172Z,17.57
2023-02-16T20:04:13.925Z,19.60
2023-02-16T20:06:41.844Z,19.23
2023-02-16T20:09:10.965Z,23.30
2023-02-16T20:11:38.730Z,21.43
2023-02-16T20:14:05.508Z,21.50
2023-02-16T20:16:32.652Z,20.13
2023-02-16T20:18:59.439Z,20.97
2023-02-16T20:21:29.595Z,19.83
2023-02-16T20:23:59.129Z,26.07
2023-02-16T20:26:34.134Z,17.83
2023-02-16T20:29:05.004Z,19.23
2023-02-16T20:31:36.197Z,20.10
2023-02-16T20:34:03.878Z,21.40
2023-02-16T20:36:32.746Z,20.03
2023-02-16T20:38:59.411Z,20.17
2023-02-16T20:41:26.275Z,21.17
2023-02-16T20:43:53.215Z,20.80
2023-02-16T20:46:20.522Z,21.87
2023-02-16T20:48:50.148Z,16.50
2023-02-16T20:51:17.920Z,16.90
2023-02-16T20:53:44.860Z,17.10
2023-02-16T20:56:20.598Z,21.53
2023-02-16T20:58:50.038Z,16.93
2023-02-16T21:01:23.801Z,19.17
2023-02-16T21:03:52.813Z,16.73
2023-02-16T21:06:19.826Z,23.00
2023-02-16T21:08:46.939Z,18.90
2023-02-16T21:11:13.820Z,17.43
2023-02-16T21:13:40.928Z,19.30
2023-02-16T21:16:08.904Z,18.13
2023-02-16T21:18:38.200Z,20.37
2023-02-16T21:21:06.625Z,20.13
2023-02-16T21:23:33.311Z,22.47
2023-02-16T21:26:01.909Z,19.47
2023-02-16T21:28:29.659Z,20.47
2023-02-16T21:31:01.438Z,17.37
2023-02-16T21:33:28.174Z,21.80
2023-02-16T21:35:54.957Z,17.33
2023-02-16T21:38:21.667Z,19.50
2023-02-16T21:41:07.045Z,22.87
2023-02-16T21:43:33.742Z,19.40
2023-02-16T21:46:01.482Z,20.63
2023-02-16T21:48:50.291Z,19.43
2023-02-16T21:51:24.036Z,20.07
2023-02-16T21:53:51.365Z,19.90
2023-02-16T21:56:26.788Z,18.07
2023-02-16T21:58:53.515Z,22.27
2023-02-16T22:01:35.526Z,19.00
2023-02-16T22:04:04.181Z,21.03
2023-02-16T22:06:39.069Z,19.00
2023-02-16T22:09:10.403Z,20.87
2023-02-16T22:11:37.428Z,18.93
2023-02-16T22:14:04.778Z,17.27
2023-02-16T22:16:33.160Z,20.37
2023-02-16T22:19:07.305Z,20.40
2023-02-16T22:21:38.302Z,19.47
2023-02-16T22:24:05.734Z,21.83
2023-02-16T22:26:34.199Z,21.23
2023-02-16T22:29:03.669Z,19.57
2023-02-16T22:31:30.493Z,19.80
2023-02-16T22:33:58.772Z,20.53
2023-02-16T22:36:25.940Z,22.60
2023-02-16T22:38:53.702Z,20.30
2023-02-16T22:41:20.805Z,21.00
2023-02-16T22:43:47.539Z,23.07
2023-02-16T22:46:16.825Z,19.33
2023-02-16T22:48:46.523Z,21.77
2023-02-16T22:51:15.872Z,17.80
2023-02-16T22:53:42.791Z,20.60
2023-02-16T22:56:12.331Z,16.87
2023-02-16T22:58:39.034Z,16.73
2023-02-16T23:01:12.349Z,17.93
2023-02-16T23:03:39.718Z,16.07
2023-02-16T23:06:17.943Z,15.30
2023-02-16T23:08:45.921Z,19.57
2023-02-16T23:11:13.379Z,15.63
2023-02-16T23:13:40.021Z,15.47
2023-02-16T23:16:12.834Z,19.33
2023-02-16T23:18:40.390Z,18.70
2023-02-16T23:21:08.870Z,18.27
2023-02-16T23:23:36.284Z,18.27
2023-02-16T23:26:05.838Z,18.40
2023-02-16T23:28:34.087Z,18.83
2023-02-16T23:31:02.447Z,16.53
2023-02-16T23:33:29.232Z,16.07
2023-02-16T23:35:57.383Z,19.10
2023-02-16T23:38:24.450Z,17.27
2023-02-16T23:41:02.834Z,18.43
2023-02-16T23:43:30.585Z,16.40
2023-02-16T23:46:00.276Z,15.77
2023-02-16T23:48:27.317Z,16.10
2023-02-16T23:50:54.380Z,15.97
2023-02-16T23:53:22.445Z,16.50
2023-02-16T23:56:03.128Z,16.03
2023-02-16T23:58:32.114Z,15.97
